Time;durP1;ratioP1;P1;durP2;ratioP2;P2;SDS_P1;SDS_P2;PMS_P1;PMS_P2;Temp;Humidity;BMP_temperature;BMP_pressure;BME280_temperature;BME280_humidity;BME280_pressure;Samples;Min_cycle;Max_cycle;Signal;HPM_P1;HPM_P2
2023/12/07 00:04:00;;;;;;;95.20;40.20;;;;;;;-2.01;88.47;100032.00;218516;1257;140708;-69
2023/12/07 00:09:04;;;;;;;85.30;35.10;;;;;;;-2.02;88.48;100029.34;218258;1263;140410;-70
2023/12/07 00:14:10;;;;;;;72.00;32.10;;;;;;;-2.03;88.49;100033.05;218331;1257;141458;-67
2023/12/07 00:19:14;;;;;;;75.90;35.00;;;;;;;-2.06;88.39;100028.77;219148;1257;140473;-68
2023/12/07 00:24:19;;;;;;;71.60;32.30;;;;;;;-2.08;88.33;100021.56;218957;1257;163047;-68
2023/12/07 00:29:23;;;;;;;76.80;35.20;;;;;;;-2.08;88.54;100021.14;218106;1260;141158;-67
2023/12/07 00:34:28;;;;;;;64.60;32.80;;;;;;;-2.07;88.53;100025.23;218441;1263;140568;-68
2023/12/07 00:39:33;;;;;;;72.20;33.70;;;;;;;-2.07;88.34;100031.89;218924;1260;140726;-68
2023/12/07 00:44:41;;;;;;;74.20;35.20;;;;;;;-2.04;88.64;100034.08;217500;1263;141385;-68
2023/12/07 00:49:46;;;;;;;79.80;32.50;;;;;;;-2.02;88.69;100034.39;217653;1260;140606;-69
2023/12/07 00:54:51;;;;;;;70.50;32.70;;;;;;;-2.00;88.58;100038.87;218183;1262;222540;-68
2023/12/07 00:59:55;;;;;;;79.30;35.60;;;;;;;-2.00;88.42;100037.16;218501;1259;140959;-66
2023/12/07 01:05:00;;;;;;;72.10;33.10;;;;;;;-2.00;88.51;100038.89;217743;1262;140680;-67
2023/12/07 01:10:06;;;;;;;70.40;32.60;;;;;;;-2.00;88.38;100039.41;217911;1259;140450;-73
2023/12/07 01:15:11;;;;;;;63.30;29.80;;;;;;;-2.01;88.49;100046.66;218018;1260;140928;-71
2023/12/07 01:20:17;;;;;;;62.00;30.20;;;;;;;-2.00;88.42;100052.11;218108;1261;142843;-66
2023/12/07 01:25:24;;;;;;;75.00;31.00;;;;;;;-1.97;88.57;100058.68;217304;1257;140718;-70
2023/12/07 01:30:29;;;;;;;70.70;30.30;;;;;;;-1.98;88.53;100064.09;218574;1257;141027;-70
2023/12/07 01:35:33;;;;;;;74.30;30.40;;;;;;;-1.95;88.48;100060.35;217833;1258;140984;-69
2023/12/07 01:40:39;;;;;;;69.00;30.90;;;;;;;-1.95;88.41;100055.87;217448;1257;140617;-68
2023/12/07 01:45:48;;;;;;;64.90;31.30;;;;;;;-1.98;88.34;100056.27;219630;1257;141155;-69
2023/12/07 01:50:55;;;;;;;70.20;30.30;;;;;;;-1.96;88.62;100054.21;219156;1257;140493;-68
2023/12/07 01:56:00;;;;;;;63.80;30.00;;;;;;;-1.92;88.53;100058.18;219660;1257;141288;-69
2023/12/07 02:01:04;;;;;;;65.40;32.60;;;;;;;-1.91;88.12;100061.70;220222;1257;140909;-69
2023/12/07 02:06:10;;;;;;;85.00;35.50;;;;;;;-1.89;88.33;100061.04;219105;1257;141459;-67
2023/12/07 02:11:15;;;;;;;84.80;40.00;;;;;;;-1.89;88.29;100060.61;220057;1257;141339;-69
2023/12/07 02:16:23;;;;;;;71.70;35.60;;;;;;;-1.85;88.15;100059.45;219784;1257;140535;-69
2023/12/07 02:21:38;;;;;;;72.60;32.30;;;;;;;-1.83;88.02;100054.67;220209;1257;142276;-69
2023/12/07 02:26:52;;;;;;;75.10;35.50;;;;;;;-1.83;87.84;100061.52;218743;1256;140952;-67
2023/12/07 02:31:56;;;;;;;73.30;30.40;;;;;;;-1.86;88.06;100059.53;217598;1260;141559;-68
2023/12/07 02:37:03;;;;;;;71.70;32.50;;;;;;;-1.89;88.15;100064.27;218736;1256;141059;-68
2023/12/07 02:42:08;;;;;;;68.90;31.30;;;;;;;-1.90;88.08;100067.23;218481;1257;141130;-69
2023/12/07 02:47:14;;;;;;;68.30;30.50;;;;;;;-1.89;88.16;100071.65;218738;1257;141068;-70
2023/12/07 02:52:19;;;;;;;94.20;45.70;;;;;;;-1.88;88.27;100076.73;217663;1257;140754;-70
2023/12/07 02:57:24;;;;;;;80.60;37.80;;;;;;;-1.89;88.16;100081.73;218002;1260;140510;-69
2023/12/07 03:02:29;;;;;;;85.50;37.80;;;;;;;-1.91;88.34;100087.53;217905;1257;141011;-69
2023/12/07 03:07:36;;;;;;;69.60;29.00;;;;;;;-1.91;88.30;100091.48;217577;1260;142509;-68
2023/12/07 03:12:41;;;;;;;70.80;34.40;;;;;;;-1.91;88.31;100096.02;218295;1257;141705;-70
2023/12/07 03:17:45;;;;;;;84.10;34.70;;;;;;;-1.91;88.40;100095.86;217916;1257;140920;-71
2023/12/07 03:22:50;;;;;;;79.40;36.90;;;;;;;-1.92;88.57;100093.49;217475;1258;140381;-72
2023/12/07 03:27:55;;;;;;;78.30;35.20;;;;;;;-1.92;88.60;100086.77;218948;1256;140690;-74
2023/12/07 03:33:00;;;;;;;74.80;33.20;;;;;;;-1.94;88.41;100084.65;217682;1256;141528;-67
2023/12/07 03:38:06;;;;;;;75.30;35.30;;;;;;;-1.97;88.47;100087.58;218821;1256;141260;-67
2023/12/07 03:43:11;;;;;;;84.70;35.50;;;;;;;-1.98;88.74;100089.92;218434;1256;140931;-70
2023/12/07 03:48:17;;;;;;;84.20;32.50;;;;;;;-1.97;88.79;100085.83;217855;1255;142635;-70
2023/12/07 03:53:22;;;;;;;83.40;36.30;;;;;;;-1.97;88.72;100083.15;219257;1256;140593;-70
2023/12/07 03:58:26;;;;;;;83.10;34.90;;;;;;;-1.96;88.75;100087.83;219340;1256;140972;-68
2023/12/07 04:03:31;;;;;;;74.00;36.80;;;;;;;-1.95;88.66;100086.50;220175;1256;141079;-68
2023/12/07 04:08:36;;;;;;;71.30;34.10;;;;;;;-1.93;88.55;100085.58;220204;1256;237869;-68
2023/12/07 04:13:42;;;;;;;66.70;32.60;;;;;;;-1.89;88.63;100089.96;217892;1257;140959;-67
2023/12/07 04:18:46;;;;;;;84.30;35.90;;;;;;;-1.88;88.66;100088.73;219116;1256;140625;-67
2023/12/07 04:23:50;;;;;;;84.20;32.80;;;;;;;-1.87;88.67;100093.79;218684;1256;140854;-66
2023/12/07 04:28:54;;;;;;;81.20;31.30;;;;;;;-1.86;88.88;100096.74;218408;1256;141307;-67
2023/12/07 04:33:59;;;;;;;82.50;37.90;;;;;;;-1.84;88.82;100103.35;218211;1256;140585;-69
2023/12/07 04:39:04;;;;;;;71.20;30.20;;;;;;;-1.85;88.58;100112.52;218046;1257;142443;-69
2023/12/07 04:44:08;;;;;;;68.30;33.00;;;;;;;-1.85;88.72;100124.19;218149;1256;140906;-68
2023/12/07 04:49:11;;;;;;;74.50;31.80;;;;;;;-1.86;88.87;100123.06;218500;1259;141271;-69
2023/12/07 04:54:16;;;;;;;78.10;35.60;;;;;;;-1.85;88.99;100122.65;217746;1257;141778;-68
2023/12/07 04:59:22;;;;;;;83.60;39.10;;;;;;;-1.85;88.91;100122.81;218533;1257;141376;-70
2023/12/07 05:04:26;;;;;;;78.30;32.60;;;;;;;-1.85;89.12;100125.42;217699;1256;140860;-67
2023/12/07 05:09:30;;;;;;;71.40;31.20;;;;;;;-1.85;89.15;100129.05;217378;1260;140505;-68
2023/12/07 05:14:37;;;;;;;100.60;42.60;;;;;;;-1.84;89.29;100130.34;218615;1257;140872;-69
2023/12/07 05:19:41;;;;;;;84.10;36.60;;;;;;;-1.82;89.22;100134.13;218746;1256;140718;-68
2023/12/07 05:24:45;;;;;;;78.50;34.60;;;;;;;-1.79;89.14;100138.41;217699;1257;140993;-69
2023/12/07 05:29:49;;;;;;;84.20;37.10;;;;;;;-1.76;89.25;100146.52;218509;1257;140738;-69
2023/12/07 05:34:52;;;;;;;87.60;35.00;;;;;;;-1.77;89.13;100151.43;217493;1257;140720;-69
2023/12/07 05:39:56;;;;;;;88.40;37.00;;;;;;;-1.77;89.00;100150.45;219687;1256;141334;-71
2023/12/07 05:45:00;;;;;;;74.30;34.60;;;;;;;-1.79;88.93;100151.64;218731;1256;141019;-72
2023/12/07 05:50:04;;;;;;;83.90;36.30;;;;;;;-1.80;88.93;100149.66;219929;1256;141236;-69
2023/12/07 05:55:10;;;;;;;90.60;39.70;;;;;;;-1.76;89.10;100153.66;220419;1256;141330;-68
2023/12/07 06:00:17;;;;;;;67.00;29.10;;;;;;;-1.74;89.13;100157.06;220256;1256;141676;-71
2023/12/07 06:05:24;;;;;;;79.50;35.30;;;;;;;-1.72;88.72;100162.86;220226;1256;140786;-75
2023/12/07 06:10:28;;;;;;;76.20;35.70;;;;;;;-1.72;88.67;100168.07;218379;1260;142057;-69
2023/12/07 06:15:34;;;;;;;81.70;34.90;;;;;;;-1.71;88.74;100171.58;218742;1256;141143;-67
2023/12/07 06:20:37;;;;;;;81.10;35.60;;;;;;;-1.67;88.95;100176.33;218833;1256;141692;-67
2023/12/07 06:25:41;;;;;;;82.30;35.80;;;;;;;-1.65;88.92;100182.07;218626;1256;140826;-69
2023/12/07 06:30:46;;;;;;;95.00;39.40;;;;;;;-1.64;89.04;100186.79;217499;1256;140523;-67
2023/12/07 06:35:50;;;;;;;96.90;40.60;;;;;;;-1.65;89.10;100190.59;218550;1256;264911;-68
2023/12/07 06:40:54;;;;;;;85.20;36.70;;;;;;;-1.68;88.99;100191.89;218569;1256;140799;-66
2023/12/07 06:45:57;;;;;;;99.60;43.60;;;;;;;-1.69;89.05;100190.94;217630;1257;152032;-66
2023/12/07 06:51:02;;;;;;;80.00;32.70;;;;;;;-1.69;89.19;100195.19;217715;1256;140514;-65
2023/12/07 06:56:06;;;;;;;93.80;38.80;;;;;;;-1.70;89.35;100192.23;219876;1256;142081;-66
2023/12/07 07:01:10;;;;;;;73.10;34.00;;;;;;;-1.71;89.02;100193.04;219117;1256;140583;-66
2023/12/07 07:06:14;;;;;;;84.00;34.70;;;;;;;-1.69;89.07;100191.48;218796;1256;141249;-66
2023/12/07 07:11:18;;;;;;;84.50;36.80;;;;;;;-1.67;89.08;100196.88;218113;1257;141648;-67
2023/12/07 07:16:22;;;;;;;85.30;34.00;;;;;;;-1.68;88.96;100199.41;218453;1256;140413;-66
2023/12/07 07:21:26;;;;;;;82.60;32.30;;;;;;;-1.69;89.17;100194.23;217488;1257;140771;-68
2023/12/07 07:26:33;;;;;;;102.30;40.00;;;;;;;-1.69;89.11;100194.05;219127;1256;140677;-67
2023/12/07 07:31:37;;;;;;;90.60;34.30;;;;;;;-1.69;89.07;100195.87;217964;1257;142538;-68
2023/12/07 07:36:41;;;;;;;109.20;46.40;;;;;;;-1.69;89.19;100195.13;220360;1256;141604;-67
2023/12/07 07:41:45;;;;;;;121.80;43.90;;;;;;;-1.65;89.32;100197.45;220258;1256;143128;-69
2023/12/07 07:46:49;;;;;;;104.10;46.50;;;;;;;-1.60;89.24;100203.34;220202;1256;141256;-68
2023/12/07 07:51:52;;;;;;;96.60;38.20;;;;;;;-1.54;89.12;100202.63;219461;1257;140829;-71
2023/12/07 07:56:57;;;;;;;102.80;36.50;;;;;;;-1.50;89.23;100201.73;218964;1256;141631;-70
2023/12/07 08:02:00;;;;;;;94.60;39.40;;;;;;;-1.45;89.27;100207.11;219522;1256;141688;-67
2023/12/07 08:07:04;;;;;;;86.60;37.20;;;;;;;-1.38;89.49;100211.54;218454;1256;140581;-69
2023/12/07 08:12:08;;;;;;;87.90;37.30;;;;;;;-1.29;89.52;100219.89;218900;1256;140883;-68
2023/12/07 08:17:12;;;;;;;83.10;36.60;;;;;;;-1.21;89.39;100221.41;218399;1256;140785;-73
2023/12/07 08:22:16;;;;;;;98.40;41.70;;;;;;;-1.16;89.29;100219.67;217521;1257;237132;-72
2023/12/07 08:27:20;;;;;;;97.50;43.10;;;;;;;-1.10;89.63;100218.27;218214;1256;141732;-70
2023/12/07 08:32:25;;;;;;;105.20;44.70;;;;;;;-1.06;89.28;100224.14;217486;1261;140606;-67
2023/12/07 08:37:29;;;;;;;104.90;37.40;;;;;;;-1.01;89.49;100228.34;217806;1259;141245;-71
2023/12/07 08:42:33;;;;;;;96.20;41.00;;;;;;;-0.92;89.49;100237.75;217425;1257;141394;-70
2023/12/07 08:47:37;;;;;;;99.30;38.50;;;;;;;-0.85;89.47;100240.06;218212;1259;140377;-71
2023/12/07 08:52:41;;;;;;;100.90;35.20;;;;;;;-0.81;89.51;100241.36;218724;1257;141331;-72
2023/12/07 08:57:56;;;;;;;96.20;33.70;;;;;;;-0.76;89.53;100236.50;217962;1257;142804;-73
2023/12/07 09:03:01;;;;;;;90.20;36.30;;;;;;;-0.67;89.40;100245.29;218502;1257;140362;-70
2023/12/07 09:08:06;;;;;;;92.10;37.10;;;;;;;-0.56;89.67;100247.27;218305;1257;140911;-71
2023/12/07 09:13:10;;;;;;;104.60;37.90;;;;;;;-0.45;89.14;100245.52;218329;1261;141088;-78
2023/12/07 09:18:14;;;;;;;101.30;42.60;;;;;;;-0.35;89.58;100247.66;217648;1258;248922;-73
2023/12/07 09:23:19;;;;;;;103.00;41.50;;;;;;;-0.24;89.09;100250.63;217723;1258;140532;-75
2023/12/07 09:28:23;;;;;;;96.30;39.40;;;;;;;-0.12;89.16;100246.61;218911;1258;142017;-74
2023/12/07 09:33:27;;;;;;;102.70;39.20;;;;;;;-0.01;89.29;100244.09;218283;1259;142401;-75
2023/12/07 09:38:31;;;;;;;89.20;35.90;;;;;;;0.09;88.92;100239.79;219511;1257;141614;-71
2023/12/07 09:43:35;;;;;;;90.10;37.90;;;;;;;0.22;88.73;100241.20;218440;1257;140404;-69
2023/12/07 09:48:45;;;;;;;90.90;39.90;;;;;;;0.37;88.90;100240.27;218029;1257;140535;-72
2023/12/07 09:53:52;;;;;;;101.60;37.90;;;;;;;0.46;88.40;100231.20;218927;1257;140978;-71
2023/12/07 09:58:57;;;;;;;87.80;37.50;;;;;;;0.60;88.82;100227.66;218971;1257;140426;-70
2023/12/07 10:04:25;;;;;;;88.40;34.10;;;;;;;0.70;88.14;100232.98;218028;1262;140193;-68
2023/12/07 10:09:30;;;;;;;;;;;;;;;0.72;87.81;100233.95;217649;1257;139972;-72
2023/12/07 10:14:38;;;;;;;82.50;34.60;;;;;;;0.75;88.02;100236.13;218891;1257;126370;-68
2023/12/07 10:19:42;;;;;;;88.80;34.50;;;;;;;0.83;88.04;100236.52;218183;1261;143084;-68
2023/12/07 10:24:47;;;;;;;75.20;31.90;;;;;;;0.88;88.14;100237.23;218214;1257;140301;-72
2023/12/07 10:29:51;;;;;;;83.20;33.00;;;;;;;0.92;87.73;100230.44;217683;1257;140676;-68
2023/12/07 10:34:58;;;;;;;77.40;34.70;;;;;;;1.00;87.34;100225.00;217959;1257;140406;-72
2023/12/07 10:40:05;;;;;;;;;;;;;;;1.10;87.28;100224.70;217876;1257;140347;-69
2023/12/07 10:45:14;;;;;;;90.50;37.20;;;;;;;1.19;87.51;100227.48;218270;1261;127552;-71
2023/12/07 10:50:23;;;;;;;81.90;35.40;;;;;;;1.30;87.17;100223.11;217869;1257;140742;-70
2023/12/07 10:55:35;;;;;;;93.10;41.50;;;;;;;1.40;87.21;100220.17;217880;1257;140958;-70
2023/12/07 11:00:46;;;;;;;85.20;38.20;;;;;;;1.50;86.73;100219.62;219048;1256;140795;-71
2023/12/07 11:05:52;;;;;;;83.40;33.90;;;;;;;1.54;86.54;100217.33;218706;1257;140839;-70
2023/12/07 11:10:56;;;;;;;80.70;32.50;;;;;;;1.55;86.29;100222.00;218562;1257;141239;-68
2023/12/07 11:16:01;;;;;;;89.40;37.50;;;;;;;1.49;86.14;100218.08;218304;1256;140589;-69
2023/12/07 11:21:05;;;;;;;96.10;42.30;;;;;;;1.48;86.07;100217.36;218185;1257;140244;-68
2023/12/07 11:26:10;;;;;;;92.50;41.00;;;;;;;1.52;86.04;100212.69;218545;1259;140534;-72
2023/12/07 11:31:15;;;;;;;95.60;41.00;;;;;;;1.53;85.98;100215.85;218358;1257;140479;-70
2023/12/07 11:36:20;;;;;;;88.00;37.40;;;;;;;1.52;85.66;100220.08;217768;1257;140113;-70
2023/12/07 11:41:24;;;;;;;87.00;37.30;;;;;;;1.47;85.86;100225.83;219405;1257;140580;-69
2023/12/07 11:46:28;;;;;;;91.10;34.80;;;;;;;1.44;85.95;100222.34;220377;1257;141441;-69
2023/12/07 11:51:32;;;;;;;91.60;38.60;;;;;;;1.41;85.92;100222.47;219408;1257;142019;-71
2023/12/07 11:56:37;;;;;;;79.10;33.90;;;;;;;1.39;85.83;100216.36;219123;1257;141278;-69
2023/12/07 12:01:47;;;;;;;87.40;39.90;;;;;;;1.40;85.54;100217.31;219692;1257;142748;-68
2023/12/07 12:06:51;;;;;;;76.80;34.40;;;;;;;1.41;85.58;100216.66;218997;1257;141660;-68
2023/12/07 12:11:59;;;;;;;96.60;37.70;;;;;;;1.40;85.73;100215.89;217693;1257;140676;-69
2023/12/07 12:17:04;;;;;;;81.00;33.40;;;;;;;1.39;85.65;100211.63;218659;1257;141041;-72
2023/12/07 12:22:08;;;;;;;75.30;35.40;;;;;;;1.39;85.52;100204.80;217941;1257;140947;-67
2023/12/07 12:27:15;;;;;;;93.30;38.30;;;;;;;1.34;85.63;100204.80;218268;1256;140900;-72
2023/12/07 12:32:22;;;;;;;;;;;;;;;1.34;85.54;100212.32;217984;1257;140718;-71
2023/12/07 12:37:32;;;;;;;80.70;38.50;;;;;;;1.31;86.04;100216.81;218287;1257;127523;-68
2023/12/07 12:42:37;;;;;;;83.80;33.30;;;;;;;1.29;85.63;100214.96;218787;1258;141474;-70
2023/12/07 12:47:43;;;;;;;72.30;37.20;;;;;;;1.25;85.62;100212.03;218427;1258;141270;-69
2023/12/07 12:52:47;;;;;;;75.70;29.90;;;;;;;1.20;85.54;100210.38;218798;1260;140763;-68
2023/12/07 12:57:56;;;;;;;72.10;32.90;;;;;;;1.16;85.93;100210.98;218296;1257;140487;-69
2023/12/07 13:03:04;;;;;;;65.50;31.60;;;;;;;1.12;85.74;100213.64;218293;1257;140773;-70
2023/12/07 13:08:09;;;;;;;71.70;28.70;;;;;;;1.10;86.14;100217.02;218878;1257;140676;-68
2023/12/07 13:13:18;;;;;;;72.40;28.30;;;;;;;1.06;86.13;100217.77;217948;1261;140432;-68
2023/12/07 13:18:24;;;;;;;68.10;28.10;;;;;;;1.01;85.86;100216.77;219013;1260;140177;-68
2023/12/07 13:23:29;;;;;;;70.10;30.60;;;;;;;0.94;86.01;100210.82;219067;1257;141097;-71
2023/12/07 13:28:33;;;;;;;68.40;33.60;;;;;;;0.88;85.97;100212.52;219127;1257;141982;-68
2023/12/07 13:33:38;;;;;;;70.60;28.90;;;;;;;0.83;86.13;100209.91;218484;1259;140962;-69
2023/12/07 13:38:57;;;;;;;71.70;31.40;;;;;;;0.81;86.12;100213.26;219472;1260;140500;-71
2023/12/07 13:44:02;;;;;;;70.30;31.80;;;;;;;0.76;86.24;100218.48;218569;1257;140765;-68
2023/12/07 13:49:07;;;;;;;75.20;33.40;;;;;;;0.73;86.42;100222.18;218414;1260;140240;-67
2023/12/07 13:54:22;;;;;;;77.00;33.20;;;;;;;0.71;86.23;100227.55;217880;1260;141461;-67
2023/12/07 13:59:47;;;;;;;78.90;36.00;;;;;;;0.65;86.33;100231.16;217493;1261;141359;-67
2023/12/07 14:04:52;;;;;;;71.30;33.40;;;;;;;0.61;86.41;100236.70;218439;1258;141015;-68
2023/12/07 14:09:58;;;;;;;85.90;32.20;;;;;;;0.57;86.45;100244.46;218530;1260;140976;-69
2023/12/07 14:15:03;;;;;;;76.00;32.30;;;;;;;0.52;86.71;100250.22;217454;1260;140862;-67
2023/12/07 14:20:09;;;;;;;78.30;31.50;;;;;;;0.49;86.93;100255.39;217625;1260;140614;-66
2023/12/07 14:25:35;;;;;;;79.20;31.40;;;;;;;0.46;87.00;100256.27;217460;1262;140466;-72
2023/12/07 14:30:40;;;;;;;70.70;32.00;;;;;;;0.42;87.01;100259.44;217918;1262;140366;-67
2023/12/07 14:35:45;;;;;;;75.00;33.30;;;;;;;0.39;87.09;100266.63;217811;1259;140923;-69
2023/12/07 14:40:54;;;;;;;81.00;32.90;;;;;;;0.33;86.77;100268.04;217961;1261;208321;-70
2023/12/07 14:46:02;;;;;;;85.90;32.80;;;;;;;0.28;87.18;100268.86;217632;1260;141449;-73
2023/12/07 14:51:07;;;;;;;78.90;30.60;;;;;;;0.26;87.09;100269.46;217798;1257;141091;-68
2023/12/07 14:56:11;;;;;;;87.10;33.70;;;;;;;0.25;87.26;100265.91;218519;1257;140943;-68
2023/12/07 15:01:17;;;;;;;95.80;38.50;;;;;;;0.25;87.38;100269.42;218094;1258;140257;-69
2023/12/07 15:06:24;;;;;;;81.10;37.10;;;;;;;0.24;87.58;100268.63;218053;1259;222517;-67
2023/12/07 15:11:32;;;;;;;86.90;38.10;;;;;;;0.25;87.48;100260.29;218988;1262;142674;-70
2023/12/07 15:16:36;;;;;;;78.30;35.90;;;;;;;0.27;87.92;100261.17;217662;1260;140922;-70
2023/12/07 15:21:42;;;;;;;86.50;36.60;;;;;;;0.26;87.39;100263.01;218719;1260;140519;-69
2023/12/07 15:26:47;;;;;;;86.00;36.10;;;;;;;0.24;87.78;100273.02;219692;1257;141172;-70
2023/12/07 15:31:55;;;;;;;78.80;34.50;;;;;;;0.22;87.46;100277.23;218357;1262;162093;-69
2023/12/07 15:37:01;;;;;;;85.70;36.50;;;;;;;0.19;87.39;100275.90;218808;1262;141054;-69
2023/12/07 15:42:09;;;;;;;82.70;37.60;;;;;;;0.18;87.74;100275.77;218386;1262;140378;-70
2023/12/07 15:47:16;;;;;;;92.60;39.50;;;;;;;0.15;87.75;100276.02;219018;1257;140635;-70
2023/12/07 15:52:21;;;;;;;90.50;39.70;;;;;;;0.13;87.55;100279.59;217840;1261;140472;-68
2023/12/07 15:57:26;;;;;;;90.00;38.30;;;;;;;0.12;87.70;100286.67;218641;1260;142043;-69
2023/12/07 16:02:33;;;;;;;84.10;39.00;;;;;;;0.10;87.95;100284.78;217703;1262;140309;-69
2023/12/07 16:07:40;;;;;;;81.60;39.70;;;;;;;0.10;87.88;100290.55;217734;1263;140337;-68
2023/12/07 16:12:50;;;;;;;91.60;36.90;;;;;;;0.12;88.08;100299.02;217748;1262;141715;-70
2023/12/07 16:18:04;;;;;;;82.70;36.60;;;;;;;0.10;88.38;100296.59;217836;1257;140385;-71
2023/12/07 16:23:19;;;;;;;86.70;37.30;;;;;;;0.08;88.12;100302.53;217956;1261;141325;-73
2023/12/07 16:28:33;;;;;;;80.90;35.50;;;;;;;0.04;88.34;100300.55;217659;1261;140860;-68
2023/12/07 16:33:46;;;;;;;98.10;43.30;;;;;;;-0.04;87.85;100299.71;217958;1262;140370;-68
2023/12/07 16:39:03;;;;;;;87.30;40.40;;;;;;;-0.10;88.14;100306.48;217683;1258;140568;-69
2023/12/07 16:44:16;;;;;;;90.60;39.20;;;;;;;-0.14;88.18;100310.56;218365;1257;140376;-69
2023/12/07 16:49:26;;;;;;;86.20;36.10;;;;;;;-0.16;88.35;100311.45;217530;1257;141786;-66
2023/12/07 16:54:33;;;;;;;91.70;40.70;;;;;;;-0.16;88.68;100316.15;217768;1262;142471;-73
2023/12/07 16:59:39;;;;;;;;;;;;;;;-0.16;88.62;100313.59;218802;1258;142451;-68
2023/12/07 17:04:47;;;;;;;98.20;41.70;;;;;;;-0.21;88.31;100313.55;219182;1257;126856;-68
2023/12/07 17:09:53;;;;;;;95.60;41.20;;;;;;;-0.23;88.56;100311.48;217500;1260;140462;-68
2023/12/07 17:15:01;;;;;;;89.00;39.40;;;;;;;-0.24;88.90;100306.70;218714;1261;142544;-69
2023/12/07 17:20:09;;;;;;;94.60;44.30;;;;;;;-0.25;88.52;100311.65;217923;1261;141327;-67
2023/12/07 17:25:14;;;;;;;96.00;38.40;;;;;;;-0.24;88.99;100313.34;218945;1262;141204;-68
2023/12/07 17:30:20;;;;;;;88.80;41.00;;;;;;;-0.25;88.64;100311.80;219032;1260;141358;-67
2023/12/07 17:35:26;;;;;;;96.80;41.20;;;;;;;-0.24;88.98;100317.48;218373;1257;140216;-67
2023/12/07 17:40:34;;;;;;;98.50;41.90;;;;;;;-0.24;88.90;100320.98;219494;1257;140549;-67
2023/12/07 17:45:40;;;;;;;;;;;;;;;-0.25;89.13;100328.63;218281;1261;141295;-66
2023/12/07 17:50:44;;;;;;;94.70;39.10;;;;;;;-0.25;89.05;100332.60;219221;1257;127972;-69
2023/12/07 17:55:48;;;;;;;88.60;40.10;;;;;;;-0.22;89.28;100327.91;218354;1262;140334;-68
2023/12/07 18:00:54;;;;;;;86.20;40.40;;;;;;;-0.22;89.00;100328.10;217435;1257;143206;-67
2023/12/07 18:06:01;;;;;;;97.10;43.40;;;;;;;-0.23;89.10;100331.15;218061;1262;140862;-67
2023/12/07 18:11:08;;;;;;;94.60;40.10;;;;;;;-0.24;88.89;100333.36;219111;1257;141356;-71
2023/12/07 18:16:13;;;;;;;94.50;39.70;;;;;;;-0.25;89.28;100328.14;217387;1262;140702;-67
2023/12/07 18:21:20;;;;;;;89.50;41.00;;;;;;;-0.29;89.03;100331.46;218185;1260;142268;-68
2023/12/07 18:26:24;;;;;;;105.20;46.10;;;;;;;-0.34;89.07;100327.73;217810;1257;150714;-67
2023/12/07 18:31:33;;;;;;;90.20;40.60;;;;;;;-0.37;89.24;100323.09;218218;1263;141179;-67
2023/12/07 18:36:37;;;;;;;88.40;36.50;;;;;;;-0.37;89.35;100317.73;217670;1257;1328713;-69
2023/12/07 18:41:42;;;;;;;105.20;42.50;;;;;;;-0.37;89.51;100311.56;218155;1257;144928;-67
2023/12/07 18:46:49;;;;;;;118.70;45.80;;;;;;;-0.36;89.09;100310.82;218333;1258;141021;-68
2023/12/07 18:51:55;;;;;;;96.50;42.10;;;;;;;-0.33;89.73;100310.55;217987;1257;141424;-65
2023/12/07 18:57:02;;;;;;;107.20;40.60;;;;;;;-0.32;89.34;100313.60;218164;1257;141580;-66
2023/12/07 19:02:08;;;;;;;110.40;43.50;;;;;;;-0.32;89.29;100313.73;217386;1260;141840;-67
2023/12/07 19:07:15;;;;;;;130.60;52.70;;;;;;;-0.29;89.77;100306.00;217610;1257;141076;-66
2023/12/07 19:12:21;;;;;;;123.10;57.30;;;;;;;-0.29;89.74;100308.86;218795;1258;142495;-66
2023/12/07 19:17:27;;;;;;;125.50;50.20;;;;;;;-0.29;89.45;100307.05;218136;1257;140791;-67
2023/12/07 19:22:34;;;;;;;159.60;55.80;;;;;;;-0.30;89.48;100311.08;219857;1257;140782;-69
2023/12/07 19:27:39;;;;;;;161.70;53.50;;;;;;;-0.30;89.51;100316.30;218774;1261;141406;-70
2023/12/07 19:32:44;;;;;;;120.30;51.60;;;;;;;-0.27;89.50;100318.45;218852;1257;141626;-71
2023/12/07 19:37:48;;;;;;;118.70;47.60;;;;;;;-0.24;89.60;100319.90;218466;1257;141133;-67
2023/12/07 19:42:55;;;;;;;102.90;42.70;;;;;;;-0.21;89.76;100326.84;219199;1257;140745;-67
2023/12/07 19:48:00;;;;;;;142.80;51.20;;;;;;;-0.19;89.53;100328.89;218613;1257;141525;-68
2023/12/07 19:53:07;;;;;;;161.80;62.60;;;;;;;-0.20;89.57;100328.79;217782;1262;141988;-67
2023/12/07 19:58:13;;;;;;;163.20;59.50;;;;;;;-0.21;89.70;100331.16;218025;1257;140883;-69
2023/12/07 20:03:18;;;;;;;172.50;60.60;;;;;;;-0.20;89.94;100335.92;218079;1257;142014;-69
2023/12/07 20:08:22;;;;;;;287.40;82.60;;;;;;;-0.18;90.00;100333.16;218309;1257;141564;-69
2023/12/07 20:13:27;;;;;;;285.50;91.40;;;;;;;-0.18;90.06;100335.08;218772;1257;141174;-68
2023/12/07 20:18:36;;;;;;;231.50;82.30;;;;;;;-0.18;89.86;100339.75;217879;1257;141055;-69
2023/12/07 20:23:46;;;;;;;221.00;80.40;;;;;;;-0.17;89.93;100335.55;218538;1261;140855;-68
2023/12/07 20:28:53;;;;;;;229.00;84.70;;;;;;;-0.18;89.95;100338.20;217636;1257;141218;-68
2023/12/07 20:33:58;;;;;;;187.90;66.20;;;;;;;-0.17;89.99;100340.76;217672;1257;141043;-66
2023/12/07 20:39:04;;;;;;;221.50;80.90;;;;;;;-0.17;90.14;100344.38;217659;1257;140693;-68
2023/12/07 20:44:08;;;;;;;235.80;74.20;;;;;;;-0.17;90.33;100346.33;217340;1257;140717;-66
2023/12/07 20:49:13;;;;;;;229.30;77.40;;;;;;;-0.17;90.37;100349.64;217890;1260;140727;-67
2023/12/07 20:54:18;;;;;;;220.10;79.90;;;;;;;-0.18;90.51;100353.60;217888;1262;141901;-68
2023/12/07 20:59:23;;;;;;;220.00;80.00;;;;;;;-0.19;90.61;100351.73;218085;1257;140632;-69
2023/12/07 21:04:27;;;;;;;212.90;79.90;;;;;;;-0.19;90.50;100354.86;218133;1257;141112;-68
2023/12/07 21:09:32;;;;;;;199.30;73.30;;;;;;;-0.18;90.52;100355.30;218494;1257;141003;-67
2023/12/07 21:14:37;;;;;;;194.70;64.80;;;;;;;-0.17;90.38;100351.05;217919;1257;141458;-66
2023/12/07 21:19:43;;;;;;;241.90;86.90;;;;;;;-0.16;90.64;100347.13;218407;1257;141326;-67
2023/12/07 21:24:49;;;;;;;207.90;69.70;;;;;;;-0.17;90.55;100343.02;218674;1257;141177;-67
2023/12/07 21:29:54;;;;;;;210.40;74.40;;;;;;;-0.20;90.77;100338.55;219847;1257;142170;-70
2023/12/07 21:34:58;;;;;;;217.30;75.70;;;;;;;-0.18;90.63;100334.92;218203;1257;142692;-69
2023/12/07 21:40:03;;;;;;;174.10;56.70;;;;;;;-0.19;90.45;100328.85;219514;1257;143171;-70
2023/12/07 21:45:07;;;;;;;217.40;78.70;;;;;;;-0.26;90.07;100322.92;217400;1261;140824;-69
2023/12/07 21:50:12;;;;;;;217.10;74.20;;;;;;;-0.25;90.91;100320.02;218502;1257;141605;-70
2023/12/07 21:55:18;;;;;;;226.50;79.00;;;;;;;-0.21;90.89;100322.29;218433;1257;141807;-70
2023/12/07 22:00:23;;;;;;;212.40;80.40;;;;;;;-0.20;91.08;100323.38;218462;1257;140941;-67
2023/12/07 22:05:29;;;;;;;194.70;72.20;;;;;;;-0.21;90.65;100314.04;218246;1261;140500;-69
2023/12/07 22:10:34;;;;;;;164.70;63.30;;;;;;;-0.27;90.46;100300.47;217576;1261;141972;-67
2023/12/07 22:15:42;;;;;;;172.60;62.60;;;;;;;-0.37;90.64;100290.44;217635;1257;140573;-67
2023/12/07 22:20:49;;;;;;;163.70;61.70;;;;;;;-0.41;90.84;100292.42;218747;1259;141859;-68
2023/12/07 22:25:55;;;;;;;152.10;66.20;;;;;;;-0.42;90.89;100290.56;217505;1258;140639;-70
2023/12/07 22:31:00;;;;;;;133.90;55.20;;;;;;;-0.41;91.00;100288.80;217608;1257;140949;-67
2023/12/07 22:36:05;;;;;;;158.30;64.50;;;;;;;-0.46;91.14;100281.41;218602;1258;140605;-66
2023/12/07 22:41:16;;;;;;;144.70;57.30;;;;;;;-0.48;91.06;100271.18;218280;1257;140720;-69
2023/12/07 22:46:21;;;;;;;131.70;49.30;;;;;;;-0.46;91.31;100265.38;217539;1257;140771;-70